Terminal Aerodrome Forecast
Issued by NWS Cleveland, OH

Home | Current Version | Previous Version | Graphics & Text | Print | Product List | Glossary On
Versions: 1 2 3 4 5 6 7 8 9 10 11 12 13 14 15 16 17 18 19 20 21 22 23 24 25 26 27 28
000
FTUS41 KCLE 231100
TAFCLE
TAF
KCLE 231138Z 2312/2418 25008KT 5SM -SHRA BR SCT040 OVC100
     FM231400 34008KT P6SM SCT009 OVC015
      TEMPO 2314/2316 5SM -SHRA BR OVC009
     FM231600 36010KT P6SM OVC015
     FM231800 36012KT P6SM BKN025
     FM232030 36012KT P6SM BKN040
     FM240600 01008KT P6SM SCT050=

USA.gov is the U.S. government's official web portal to all federal, state and local government web resources and services.